sensor_id;sensor_type;location;lat;lon;timestamp;P1;durP1;ratioP1;P2;durP2;ratioP2
11685;SDS011;5899;51.282;6.094;2023-05-19T00:01:56;5.45;;;2.67;;
11685;SDS011;5899;51.282;6.094;2023-05-19T00:04:25;5.00;;;2.63;;
11685;SDS011;5899;51.282;6.094;2023-05-19T00:06:52;3.77;;;2.60;;
11685;SDS011;5899;51.282;6.094;2023-05-19T00:09:19;5.32;;;2.65;;
11685;SDS011;5899;51.282;6.094;2023-05-19T00:11:47;2.90;;;2.42;;
11685;SDS011;5899;51.282;6.094;2023-05-19T00:14:14;4.38;;;2.55;;
11685;SDS011;5899;51.282;6.094;2023-05-19T00:16:41;4.40;;;2.72;;
11685;SDS011;5899;51.282;6.094;2023-05-19T00:19:07;4.00;;;2.58;;
11685;SDS011;5899;51.282;6.094;2023-05-19T00:21:36;3.80;;;2.60;;
11685;SDS011;5899;51.282;6.094;2023-05-19T00:24:03;4.25;;;2.50;;
11685;SDS011;5899;51.282;6.094;2023-05-19T00:26:30;4.87;;;3.67;;
11685;SDS011;5899;51.282;6.094;2023-05-19T00:28:56;5.20;;;3.10;;
11685;SDS011;5899;51.282;6.094;2023-05-19T00:31:23;4.07;;;2.58;;
11685;SDS011;5899;51.282;6.094;2023-05-19T00:33:50;4.53;;;2.97;;
11685;SDS011;5899;51.282;6.094;2023-05-19T00:36:17;3.75;;;2.80;;
11685;SDS011;5899;51.282;6.094;2023-05-19T00:38:45;4.68;;;2.78;;
11685;SDS011;5899;51.282;6.094;2023-05-19T00:41:11;5.13;;;2.95;;
11685;SDS011;5899;51.282;6.094;2023-05-19T00:43:38;3.70;;;2.53;;
11685;SDS011;5899;51.282;6.094;2023-05-19T00:46:04;4.93;;;2.95;;
11685;SDS011;5899;51.282;6.094;2023-05-19T00:48:31;3.70;;;2.80;;
11685;SDS011;5899;51.282;6.094;2023-05-19T00:50:58;4.05;;;2.80;;
11685;SDS011;5899;51.282;6.094;2023-05-19T00:53:28;3.90;;;2.60;;
11685;SDS011;5899;51.282;6.094;2023-05-19T00:55:56;3.85;;;2.50;;
11685;SDS011;5899;51.282;6.094;2023-05-19T00:58:23;3.90;;;2.83;;
11685;SDS011;5899;51.282;6.094;2023-05-19T01:00:53;4.05;;;3.00;;
11685;SDS011;5899;51.282;6.094;2023-05-19T01:03:22;3.55;;;3.20;;
11685;SDS011;5899;51.282;6.094;2023-05-19T01:05:49;4.15;;;2.75;;
11685;SDS011;5899;51.282;6.094;2023-05-19T01:08:17;5.20;;;3.00;;
11685;SDS011;5899;51.282;6.094;2023-05-19T01:10:44;3.95;;;3.05;;
11685;SDS011;5899;51.282;6.094;2023-05-19T01:13:12;3.35;;;2.90;;
11685;SDS011;5899;51.282;6.094;2023-05-19T01:15:42;5.28;;;3.10;;
11685;SDS011;5899;51.282;6.094;2023-05-19T01:18:10;6.35;;;2.80;;
11685;SDS011;5899;51.282;6.094;2023-05-19T01:20:40;4.00;;;3.00;;
11685;SDS011;5899;51.282;6.094;2023-05-19T01:23:22;5.07;;;2.80;;
11685;SDS011;5899;51.282;6.094;2023-05-19T01:28:47;6.35;;;3.50;;
11685;SDS011;5899;51.282;6.094;2023-05-19T01:31:22;5.45;;;2.95;;
11685;SDS011;5899;51.282;6.094;2023-05-19T01:33:48;2.97;;;2.67;;
11685;SDS011;5899;51.282;6.094;2023-05-19T01:36:16;9.15;;;3.25;;
11685;SDS011;5899;51.282;6.094;2023-05-19T01:38:45;4.15;;;2.80;;
11685;SDS011;5899;51.282;6.094;2023-05-19T01:41:14;4.25;;;2.90;;
11685;SDS011;5899;51.282;6.094;2023-05-19T01:43:45;3.55;;;2.78;;
11685;SDS011;5899;51.282;6.094;2023-05-19T01:46:13;5.07;;;2.83;;
11685;SDS011;5899;51.282;6.094;2023-05-19T01:48:45;3.40;;;2.60;;
11685;SDS011;5899;51.282;6.094;2023-05-19T01:51:13;5.45;;;2.90;;
11685;SDS011;5899;51.282;6.094;2023-05-19T01:53:39;5.47;;;3.53;;
11685;SDS011;5899;51.282;6.094;2023-05-19T01:56:06;3.55;;;2.95;;
11685;SDS011;5899;51.282;6.094;2023-05-19T01:58:36;4.97;;;3.10;;
11685;SDS011;5899;51.282;6.094;2023-05-19T02:01:07;3.30;;;3.00;;
11685;SDS011;5899;51.282;6.094;2023-05-19T02:03:39;5.80;;;2.92;;
11685;SDS011;5899;51.282;6.094;2023-05-19T02:06:12;5.10;;;2.83;;
11685;SDS011;5899;51.282;6.094;2023-05-19T02:08:42;5.63;;;3.10;;
11685;SDS011;5899;51.282;6.094;2023-05-19T02:11:10;4.10;;;2.95;;
11685;SDS011;5899;51.282;6.094;2023-05-19T02:13:40;5.53;;;3.03;;
11685;SDS011;5899;51.282;6.094;2023-05-19T02:16:08;3.97;;;3.40;;
11685;SDS011;5899;51.282;6.094;2023-05-19T02:18:36;5.38;;;3.33;;
11685;SDS011;5899;51.282;6.094;2023-05-19T02:21:02;3.40;;;3.03;;
11685;SDS011;5899;51.282;6.094;2023-05-19T02:23:32;4.95;;;3.80;;
11685;SDS011;5899;51.282;6.094;2023-05-19T02:26:04;4.35;;;2.95;;
11685;SDS011;5899;51.282;6.094;2023-05-19T02:28:32;3.47;;;3.17;;
11685;SDS011;5899;51.282;6.094;2023-05-19T02:30:59;3.23;;;2.93;;
11685;SDS011;5899;51.282;6.094;2023-05-19T02:33:25;5.85;;;3.22;;
11685;SDS011;5899;51.282;6.094;2023-05-19T02:35:54;3.88;;;2.90;;
11685;SDS011;5899;51.282;6.094;2023-05-19T02:38:20;3.70;;;3.20;;
11685;SDS011;5899;51.282;6.094;2023-05-19T02:40:49;5.05;;;3.30;;
11685;SDS011;5899;51.282;6.094;2023-05-19T02:43:16;5.50;;;3.47;;
11685;SDS011;5899;51.282;6.094;2023-05-19T02:45:42;4.40;;;3.35;;
11685;SDS011;5899;51.282;6.094;2023-05-19T02:48:09;4.43;;;3.80;;
11685;SDS011;5899;51.282;6.094;2023-05-19T02:50:35;5.35;;;3.22;;
11685;SDS011;5899;51.282;6.094;2023-05-19T02:53:02;4.05;;;3.40;;
11685;SDS011;5899;51.282;6.094;2023-05-19T02:55:29;4.00;;;3.27;;
11685;SDS011;5899;51.282;6.094;2023-05-19T02:57:57;3.97;;;3.20;;
11685;SDS011;5899;51.282;6.094;2023-05-19T03:00:24;5.00;;;3.20;;
11685;SDS011;5899;51.282;6.094;2023-05-19T03:02:51;6.22;;;3.50;;
11685;SDS011;5899;51.282;6.094;2023-05-19T03:05:18;5.38;;;3.22;;
11685;SDS011;5899;51.282;6.094;2023-05-19T03:07:44;5.30;;;3.38;;
11685;SDS011;5899;51.282;6.094;2023-05-19T03:10:11;4.80;;;3.63;;
11685;SDS011;5899;51.282;6.094;2023-05-19T03:12:38;4.80;;;3.17;;
11685;SDS011;5899;51.282;6.094;2023-05-19T03:15:06;7.95;;;3.90;;
11685;SDS011;5899;51.282;6.094;2023-05-19T03:17:33;4.85;;;3.63;;
11685;SDS011;5899;51.282;6.094;2023-05-19T03:20:01;6.22;;;3.38;;
11685;SDS011;5899;51.282;6.094;2023-05-19T03:22:29;5.30;;;3.10;;
11685;SDS011;5899;51.282;6.094;2023-05-19T03:24:56;6.80;;;3.80;;
11685;SDS011;5899;51.282;6.094;2023-05-19T03:27:24;5.50;;;3.55;;
11685;SDS011;5899;51.282;6.094;2023-05-19T03:29:51;5.22;;;3.33;;
11685;SDS011;5899;51.282;6.094;2023-05-19T03:32:19;4.00;;;3.60;;
11685;SDS011;5899;51.282;6.094;2023-05-19T03:34:46;6.78;;;4.25;;
11685;SDS011;5899;51.282;6.094;2023-05-19T03:37:13;5.20;;;3.38;;
11685;SDS011;5899;51.282;6.094;2023-05-19T03:39:41;5.85;;;3.38;;
11685;SDS011;5899;51.282;6.094;2023-05-19T03:42:09;5.28;;;3.85;;
11685;SDS011;5899;51.282;6.094;2023-05-19T03:44:35;7.75;;;3.80;;
11685;SDS011;5899;51.282;6.094;2023-05-19T03:47:02;7.18;;;3.78;;
11685;SDS011;5899;51.282;6.094;2023-05-19T03:49:30;5.35;;;4.30;;
11685;SDS011;5899;51.282;6.094;2023-05-19T03:51:58;5.97;;;4.10;;
11685;SDS011;5899;51.282;6.094;2023-05-19T03:54:27;5.30;;;3.95;;
11685;SDS011;5899;51.282;6.094;2023-05-19T03:56:53;4.38;;;3.40;;
11685;SDS011;5899;51.282;6.094;2023-05-19T03:59:20;5.47;;;3.85;;
11685;SDS011;5899;51.282;6.094;2023-05-19T04:01:47;5.53;;;4.15;;
11685;SDS011;5899;51.282;6.094;2023-05-19T04:04:14;8.10;;;4.03;;
11685;SDS011;5899;51.282;6.094;2023-05-19T04:06:41;4.25;;;3.85;;
11685;SDS011;5899;51.282;6.094;2023-05-19T04:09:10;6.95;;;4.32;;
11685;SDS011;5899;51.282;6.094;2023-05-19T04:11:39;6.03;;;3.72;;
11685;SDS011;5899;51.282;6.094;2023-05-19T04:14:06;5.72;;;3.83;;
11685;SDS011;5899;51.282;6.094;2023-05-19T04:16:33;3.92;;;3.47;;
11685;SDS011;5899;51.282;6.094;2023-05-19T04:19:00;5.50;;;4.68;;
11685;SDS011;5899;51.282;6.094;2023-05-19T04:21:26;6.47;;;3.90;;
11685;SDS011;5899;51.282;6.094;2023-05-19T04:23:54;5.13;;;3.67;;
11685;SDS011;5899;51.282;6.094;2023-05-19T04:26:22;6.83;;;3.83;;
11685;SDS011;5899;51.282;6.094;2023-05-19T04:28:48;6.57;;;4.35;;
11685;SDS011;5899;51.282;6.094;2023-05-19T04:31:16;4.82;;;3.90;;
11685;SDS011;5899;51.282;6.094;2023-05-19T04:33:42;5.32;;;4.10;;
11685;SDS011;5899;51.282;6.094;2023-05-19T04:36:08;6.07;;;4.30;;
11685;SDS011;5899;51.282;6.094;2023-05-19T04:38:35;6.07;;;4.45;;
11685;SDS011;5899;51.282;6.094;2023-05-19T04:41:05;4.78;;;4.13;;
11685;SDS011;5899;51.282;6.094;2023-05-19T04:43:34;4.50;;;3.97;;
11685;SDS011;5899;51.282;6.094;2023-05-19T04:46:00;6.18;;;4.13;;
11685;SDS011;5899;51.282;6.094;2023-05-19T04:48:30;7.07;;;4.53;;
11685;SDS011;5899;51.282;6.094;2023-05-19T04:50:57;6.07;;;4.23;;
11685;SDS011;5899;51.282;6.094;2023-05-19T04:53:25;5.07;;;4.28;;
11685;SDS011;5899;51.282;6.094;2023-05-19T04:55:52;6.82;;;4.20;;
11685;SDS011;5899;51.282;6.094;2023-05-19T04:58:20;5.28;;;4.45;;
11685;SDS011;5899;51.282;6.094;2023-05-19T05:00:49;5.82;;;4.32;;
11685;SDS011;5899;51.282;6.094;2023-05-19T05:03:16;6.68;;;4.38;;
11685;SDS011;5899;51.282;6.094;2023-05-19T05:05:42;5.65;;;4.45;;
11685;SDS011;5899;51.282;6.094;2023-05-19T05:08:09;6.35;;;4.53;;
11685;SDS011;5899;51.282;6.094;2023-05-19T05:10:35;5.40;;;4.53;;
11685;SDS011;5899;51.282;6.094;2023-05-19T05:13:02;6.28;;;4.65;;
11685;SDS011;5899;51.282;6.094;2023-05-19T05:15:32;6.60;;;5.05;;
11685;SDS011;5899;51.282;6.094;2023-05-19T05:18:00;5.45;;;4.47;;
11685;SDS011;5899;51.282;6.094;2023-05-19T05:20:27;7.55;;;5.28;;
11685;SDS011;5899;51.282;6.094;2023-05-19T05:22:54;7.25;;;4.70;;
11685;SDS011;5899;51.282;6.094;2023-05-19T05:25:22;5.78;;;4.68;;
11685;SDS011;5899;51.282;6.094;2023-05-19T05:27:48;7.00;;;5.10;;
11685;SDS011;5899;51.282;6.094;2023-05-19T05:30:15;8.20;;;4.97;;
11685;SDS011;5899;51.282;6.094;2023-05-19T05:32:42;6.67;;;4.70;;
11685;SDS011;5899;51.282;6.094;2023-05-19T05:35:09;7.32;;;4.93;;
11685;SDS011;5899;51.282;6.094;2023-05-19T05:37:35;7.88;;;4.85;;
11685;SDS011;5899;51.282;6.094;2023-05-19T05:40:02;7.15;;;5.05;;
11685;SDS011;5899;51.282;6.094;2023-05-19T05:42:28;6.45;;;4.82;;
11685;SDS011;5899;51.282;6.094;2023-05-19T05:44:58;7.93;;;4.90;;
11685;SDS011;5899;51.282;6.094;2023-05-19T05:47:24;7.47;;;4.93;;
11685;SDS011;5899;51.282;6.094;2023-05-19T05:49:55;8.05;;;4.63;;
11685;SDS011;5899;51.282;6.094;2023-05-19T05:52:22;5.97;;;5.32;;
11685;SDS011;5899;51.282;6.094;2023-05-19T05:54:51;7.70;;;4.68;;
11685;SDS011;5899;51.282;6.094;2023-05-19T05:57:18;7.07;;;4.53;;
11685;SDS011;5899;51.282;6.094;2023-05-19T05:59:45;6.22;;;4.35;;
11685;SDS011;5899;51.282;6.094;2023-05-19T06:02:11;7.20;;;4.55;;
11685;SDS011;5899;51.282;6.094;2023-05-19T06:04:38;5.75;;;4.45;;
11685;SDS011;5899;51.282;6.094;2023-05-19T06:07:09;10.75;;;4.50;;
11685;SDS011;5899;51.282;6.094;2023-05-19T06:09:35;5.22;;;4.20;;
11685;SDS011;5899;51.282;6.094;2023-05-19T06:12:04;4.47;;;3.80;;
11685;SDS011;5899;51.282;6.094;2023-05-19T06:14:33;8.07;;;4.32;;
11685;SDS011;5899;51.282;6.094;2023-05-19T06:17:00;5.45;;;3.80;;
11685;SDS011;5899;51.282;6.094;2023-05-19T06:19:29;4.47;;;3.90;;
11685;SDS011;5899;51.282;6.094;2023-05-19T06:21:55;5.18;;;3.70;;
11685;SDS011;5899;51.282;6.094;2023-05-19T06:24:23;3.65;;;3.35;;
11685;SDS011;5899;51.282;6.094;2023-05-19T06:26:51;4.88;;;3.50;;
11685;SDS011;5899;51.282;6.094;2023-05-19T06:29:17;5.82;;;3.67;;
11685;SDS011;5899;51.282;6.094;2023-05-19T06:31:43;4.00;;;3.60;;
11685;SDS011;5899;51.282;6.094;2023-05-19T06:34:10;7.10;;;3.88;;
11685;SDS011;5899;51.282;6.094;2023-05-19T06:36:40;4.55;;;3.40;;
11685;SDS011;5899;51.282;6.094;2023-05-19T06:39:06;8.32;;;3.47;;
11685;SDS011;5899;51.282;6.094;2023-05-19T06:41:34;5.93;;;3.25;;
11685;SDS011;5899;51.282;6.094;2023-05-19T06:44:02;4.13;;;3.05;;
11685;SDS011;5899;51.282;6.094;2023-05-19T06:46:28;5.30;;;3.85;;
11685;SDS011;5899;51.282;6.094;2023-05-19T06:48:55;7.72;;;3.50;;
11685;SDS011;5899;51.282;6.094;2023-05-19T06:51:21;7.97;;;3.67;;
11685;SDS011;5899;51.282;6.094;2023-05-19T06:53:48;6.32;;;3.55;;
11685;SDS011;5899;51.282;6.094;2023-05-19T06:56:14;7.63;;;3.40;;
11685;SDS011;5899;51.282;6.094;2023-05-19T06:58:44;5.45;;;3.50;;
11685;SDS011;5899;51.282;6.094;2023-05-19T07:01:10;6.30;;;3.03;;
11685;SDS011;5899;51.282;6.094;2023-05-19T07:03:36;5.10;;;3.53;;
11685;SDS011;5899;51.282;6.094;2023-05-19T07:06:03;7.00;;;3.50;;
11685;SDS011;5899;51.282;6.094;2023-05-19T07:08:29;5.15;;;3.10;;
11685;SDS011;5899;51.282;6.094;2023-05-19T07:10:56;5.82;;;3.10;;
11685;SDS011;5899;51.282;6.094;2023-05-19T07:13:24;5.93;;;3.28;;
11685;SDS011;5899;51.282;6.094;2023-05-19T07:15:56;5.18;;;3.03;;
11685;SDS011;5899;51.282;6.094;2023-05-19T07:18:23;6.22;;;3.97;;
11685;SDS011;5899;51.282;6.094;2023-05-19T07:20:51;6.07;;;3.50;;
11685;SDS011;5899;51.282;6.094;2023-05-19T07:23:21;4.80;;;2.80;;
11685;SDS011;5899;51.282;6.094;2023-05-19T07:25:48;5.03;;;4.05;;
11685;SDS011;5899;51.282;6.094;2023-05-19T07:28:21;5.57;;;3.63;;
11685;SDS011;5899;51.282;6.094;2023-05-19T07:30:50;3.90;;;3.05;;
11685;SDS011;5899;51.282;6.094;2023-05-19T07:33:21;4.75;;;2.65;;
11685;SDS011;5899;51.282;6.094;2023-05-19T07:35:56;5.65;;;3.17;;
11685;SDS011;5899;51.282;6.094;2023-05-19T07:38:25;3.83;;;2.83;;
11685;SDS011;5899;51.282;6.094;2023-05-19T07:41:00;4.88;;;2.92;;
11685;SDS011;5899;51.282;6.094;2023-05-19T07:43:35;4.57;;;2.90;;
11685;SDS011;5899;51.282;6.094;2023-05-19T07:46:04;5.28;;;2.65;;
11685;SDS011;5899;51.282;6.094;2023-05-19T07:48:34;3.72;;;2.75;;
11685;SDS011;5899;51.282;6.094;2023-05-19T07:51:05;7.20;;;3.30;;
11685;SDS011;5899;51.282;6.094;2023-05-19T07:53:36;4.88;;;2.88;;
11685;SDS011;5899;51.282;6.094;2023-05-19T07:56:07;5.17;;;2.90;;
11685;SDS011;5899;51.282;6.094;2023-05-19T07:58:33;4.95;;;2.95;;
11685;SDS011;5899;51.282;6.094;2023-05-19T08:01:02;4.80;;;2.80;;
11685;SDS011;5899;51.282;6.094;2023-05-19T08:03:31;6.45;;;2.60;;
11685;SDS011;5899;51.282;6.094;2023-05-19T08:06:01;3.90;;;2.47;;
11685;SDS011;5899;51.282;6.094;2023-05-19T08:08:28;4.85;;;2.85;;
11685;SDS011;5899;51.282;6.094;2023-05-19T08:11:00;2.88;;;2.35;;
11685;SDS011;5899;51.282;6.094;2023-05-19T08:13:27;5.88;;;2.53;;
11685;SDS011;5899;51.282;6.094;2023-05-19T08:15:53;5.10;;;2.53;;
11685;SDS011;5899;51.282;6.094;2023-05-19T08:18:25;4.72;;;3.13;;
11685;SDS011;5899;51.282;6.094;2023-05-19T08:20:57;4.78;;;2.70;;
11685;SDS011;5899;51.282;6.094;2023-05-19T08:23:25;7.75;;;2.55;;
11685;SDS011;5899;51.282;6.094;2023-05-19T08:25:52;5.05;;;2.53;;
11685;SDS011;5899;51.282;6.094;2023-05-19T08:28:21;4.20;;;2.88;;
11685;SDS011;5899;51.282;6.094;2023-05-19T08:30:48;5.32;;;2.65;;
11685;SDS011;5899;51.282;6.094;2023-05-19T08:33:15;5.90;;;2.90;;
11685;SDS011;5899;51.282;6.094;2023-05-19T08:35:43;4.65;;;2.53;;
11685;SDS011;5899;51.282;6.094;2023-05-19T08:38:10;3.90;;;2.58;;
11685;SDS011;5899;51.282;6.094;2023-05-19T08:40:39;3.30;;;2.30;;
11685;SDS011;5899;51.282;6.094;2023-05-19T08:43:10;4.00;;;2.25;;
11685;SDS011;5899;51.282;6.094;2023-05-19T08:45:39;3.25;;;2.25;;
11685;SDS011;5899;51.282;6.094;2023-05-19T08:48:10;3.67;;;2.13;;
11685;SDS011;5899;51.282;6.094;2023-05-19T08:50:42;4.93;;;2.30;;
11685;SDS011;5899;51.282;6.094;2023-05-19T08:53:17;3.92;;;2.50;;
11685;SDS011;5899;51.282;6.094;2023-05-19T08:55:53;5.15;;;2.50;;
11685;SDS011;5899;51.282;6.094;2023-05-19T08:58:23;3.30;;;2.10;;
11685;SDS011;5899;51.282;6.094;2023-05-19T09:00:55;3.13;;;1.95;;
11685;SDS011;5899;51.282;6.094;2023-05-19T09:03:23;3.17;;;2.10;;
11685;SDS011;5899;51.282;6.094;2023-05-19T09:05:50;3.50;;;2.10;;
11685;SDS011;5899;51.282;6.094;2023-05-19T09:08:21;3.65;;;2.05;;
11685;SDS011;5899;51.282;6.094;2023-05-19T09:10:55;4.75;;;2.47;;
11685;SDS011;5899;51.282;6.094;2023-05-19T09:13:22;3.97;;;2.20;;
11685;SDS011;5899;51.282;6.094;2023-05-19T09:15:52;2.87;;;2.10;;
11685;SDS011;5899;51.282;6.094;2023-05-19T09:18:23;4.18;;;2.50;;
11685;SDS011;5899;51.282;6.094;2023-05-19T09:20:54;5.13;;;2.15;;
11685;SDS011;5899;51.282;6.094;2023-05-19T09:23:24;3.92;;;2.03;;
11685;SDS011;5899;51.282;6.094;2023-05-19T09:25:54;2.72;;;1.73;;
11685;SDS011;5899;51.282;6.094;2023-05-19T09:28:23;2.30;;;1.77;;
11685;SDS011;5899;51.282;6.094;2023-05-19T09:30:57;4.50;;;2.13;;
11685;SDS011;5899;51.282;6.094;2023-05-19T09:33:24;4.20;;;1.90;;
11685;SDS011;5899;51.282;6.094;2023-05-19T09:35:52;3.20;;;1.70;;
11685;SDS011;5899;51.282;6.094;2023-05-19T09:38:24;2.80;;;1.65;;
11685;SDS011;5899;51.282;6.094;2023-05-19T09:40:54;2.40;;;1.80;;
11685;SDS011;5899;51.282;6.094;2023-05-19T09:43:21;4.70;;;1.75;;
11685;SDS011;5899;51.282;6.094;2023-05-19T09:45:53;3.65;;;2.58;;
11685;SDS011;5899;51.282;6.094;2023-05-19T09:48:30;1.83;;;1.40;;
11685;SDS011;5899;51.282;6.094;2023-05-19T09:50:57;3.63;;;1.90;;
11685;SDS011;5899;51.282;6.094;2023-05-19T09:53:25;3.55;;;1.70;;
11685;SDS011;5899;51.282;6.094;2023-05-19T09:55:55;4.20;;;1.70;;
11685;SDS011;5899;51.282;6.094;2023-05-19T09:58:24;3.03;;;1.70;;
11685;SDS011;5899;51.282;6.094;2023-05-19T10:00:52;4.15;;;1.75;;
11685;SDS011;5899;51.282;6.094;2023-05-19T10:03:22;2.57;;;1.60;;
11685;SDS011;5899;51.282;6.094;2023-05-19T10:05:54;2.10;;;1.50;;
11685;SDS011;5899;51.282;6.094;2023-05-19T10:08:21;4.25;;;1.63;;
11685;SDS011;5899;51.282;6.094;2023-05-19T10:10:56;2.63;;;1.60;;
11685;SDS011;5899;51.282;6.094;2023-05-19T10:13:23;2.80;;;1.40;;
11685;SDS011;5899;51.282;6.094;2023-05-19T10:15:50;2.60;;;1.70;;
11685;SDS011;5899;51.282;6.094;2023-05-19T10:18:20;3.03;;;1.70;;
11685;SDS011;5899;51.282;6.094;2023-05-19T10:20:48;2.63;;;1.60;;
11685;SDS011;5899;51.282;6.094;2023-05-19T10:23:15;3.78;;;1.70;;
11685;SDS011;5899;51.282;6.094;2023-05-19T10:25:41;4.68;;;1.90;;
11685;SDS011;5899;51.282;6.094;2023-05-19T10:28:10;4.72;;;1.73;;
11685;SDS011;5899;51.282;6.094;2023-05-19T10:30:37;2.00;;;1.80;;
11685;SDS011;5899;51.282;6.094;2023-05-19T10:33:05;5.05;;;1.83;;
11685;SDS011;5899;51.282;6.094;2023-05-19T10:35:46;4.10;;;1.83;;
11685;SDS011;5899;51.282;6.094;2023-05-19T10:38:23;2.35;;;1.65;;
11685;SDS011;5899;51.282;6.094;2023-05-19T10:40:52;4.13;;;1.83;;
11685;SDS011;5899;51.282;6.094;2023-05-19T10:43:23;3.08;;;1.77;;
11685;SDS011;5899;51.282;6.094;2023-05-19T10:45:52;3.10;;;2.20;;
11685;SDS011;5899;51.282;6.094;2023-05-19T10:48:20;2.78;;;1.73;;
11685;SDS011;5899;51.282;6.094;2023-05-19T10:50:47;3.50;;;1.80;;
11685;SDS011;5899;51.282;6.094;2023-05-19T10:53:17;3.88;;;1.83;;
11685;SDS011;5899;51.282;6.094;2023-05-19T10:55:51;5.68;;;1.90;;
11685;SDS011;5899;51.282;6.094;2023-05-19T10:58:38;1.95;;;1.60;;
11685;SDS011;5899;51.282;6.094;2023-05-19T11:01:06;4.25;;;2.08;;
11685;SDS011;5899;51.282;6.094;2023-05-19T11:03:43;4.60;;;2.10;;
11685;SDS011;5899;51.282;6.094;2023-05-19T11:06:17;5.05;;;1.90;;
11685;SDS011;5899;51.282;6.094;2023-05-19T11:08:55;2.83;;;1.73;;
11685;SDS011;5899;51.282;6.094;2023-05-19T11:11:25;5.05;;;2.17;;
11685;SDS011;5899;51.282;6.094;2023-05-19T11:16:59;3.53;;;2.30;;
11685;SDS011;5899;51.282;6.094;2023-05-19T11:19:33;3.70;;;2.03;;
11685;SDS011;5899;51.282;6.094;2023-05-19T11:22:12;2.97;;;2.05;;
11685;SDS011;5899;51.282;6.094;2023-05-19T11:24:58;2.88;;;1.92;;
11685;SDS011;5899;51.282;6.094;2023-05-19T11:27:26;2.53;;;1.70;;
11685;SDS011;5899;51.282;6.094;2023-05-19T11:30:07;4.55;;;1.92;;
11685;SDS011;5899;51.282;6.094;2023-05-19T11:32:37;3.47;;;1.92;;
11685;SDS011;5899;51.282;6.094;2023-05-19T11:35:06;2.65;;;1.98;;
11685;SDS011;5899;51.282;6.094;2023-05-19T11:37:33;4.38;;;2.00;;
11685;SDS011;5899;51.282;6.094;2023-05-19T11:40:00;3.70;;;2.17;;
11685;SDS011;5899;51.282;6.094;2023-05-19T11:42:30;4.00;;;2.00;;
11685;SDS011;5899;51.282;6.094;2023-05-19T11:44:56;3.38;;;2.20;;
11685;SDS011;5899;51.282;6.094;2023-05-19T11:47:25;3.55;;;1.98;;
11685;SDS011;5899;51.282;6.094;2023-05-19T11:49:56;3.72;;;1.92;;
11685;SDS011;5899;51.282;6.094;2023-05-19T11:52:38;3.95;;;2.05;;
11685;SDS011;5899;51.282;6.094;2023-05-19T11:55:14;2.92;;;2.20;;
11685;SDS011;5899;51.282;6.094;2023-05-19T11:57:50;2.08;;;1.70;;
11685;SDS011;5899;51.282;6.094;2023-05-19T12:00:25;3.00;;;1.80;;
11685;SDS011;5899;51.282;6.094;2023-05-19T12:03:01;4.28;;;2.08;;
11685;SDS011;5899;51.282;6.094;2023-05-19T12:08:22;2.90;;;2.03;;
11685;SDS011;5899;51.282;6.094;2023-05-19T12:10:53;2.28;;;1.80;;
11685;SDS011;5899;51.282;6.094;2023-05-19T12:13:24;5.35;;;2.13;;
11685;SDS011;5899;51.282;6.094;2023-05-19T12:15:53;3.75;;;1.80;;
11685;SDS011;5899;51.282;6.094;2023-05-19T12:18:21;3.30;;;2.13;;
11685;SDS011;5899;51.282;6.094;2023-05-19T12:20:52;2.83;;;1.92;;
11685;SDS011;5899;51.282;6.094;2023-05-19T12:23:24;4.10;;;1.80;;
11685;SDS011;5899;51.282;6.094;2023-05-19T12:25:56;3.95;;;1.95;;
11685;SDS011;5899;51.282;6.094;2023-05-19T12:28:24;3.53;;;1.90;;
11685;SDS011;5899;51.282;6.094;2023-05-19T12:30:51;3.67;;;2.25;;
11685;SDS011;5899;51.282;6.094;2023-05-19T12:33:18;6.38;;;2.50;;
11685;SDS011;5899;51.282;6.094;2023-05-19T12:35:50;4.80;;;2.58;;
11685;SDS011;5899;51.282;6.094;2023-05-19T12:41:05;4.53;;;1.77;;
11685;SDS011;5899;51.282;6.094;2023-05-19T12:43:36;6.22;;;2.28;;
11685;SDS011;5899;51.282;6.094;2023-05-19T12:46:14;4.35;;;2.35;;
11685;SDS011;5899;51.282;6.094;2023-05-19T12:48:41;3.67;;;2.67;;
11685;SDS011;5899;51.282;6.094;2023-05-19T12:51:10;3.45;;;2.10;;
11685;SDS011;5899;51.282;6.094;2023-05-19T12:53:37;5.25;;;2.20;;
11685;SDS011;5899;51.282;6.094;2023-05-19T12:56:23;3.92;;;2.30;;
11685;SDS011;5899;51.282;6.094;2023-05-19T12:58:53;4.03;;;2.10;;
11685;SDS011;5899;51.282;6.094;2023-05-19T13:01:21;5.50;;;2.85;;
11685;SDS011;5899;51.282;6.094;2023-05-19T13:03:48;3.38;;;2.20;;
11685;SDS011;5899;51.282;6.094;2023-05-19T13:06:16;2.60;;;1.90;;
11685;SDS011;5899;51.282;6.094;2023-05-19T13:08:43;3.83;;;1.93;;
11685;SDS011;5899;51.282;6.094;2023-05-19T13:11:13;5.75;;;2.40;;
11685;SDS011;5899;51.282;6.094;2023-05-19T13:13:39;4.28;;;2.60;;
11685;SDS011;5899;51.282;6.094;2023-05-19T13:16:10;3.65;;;2.05;;
11685;SDS011;5899;51.282;6.094;2023-05-19T13:18:48;3.72;;;1.70;;
11685;SDS011;5899;51.282;6.094;2023-05-19T13:21:15;3.90;;;2.17;;
11685;SDS011;5899;51.282;6.094;2023-05-19T13:23:48;4.20;;;1.95;;
11685;SDS011;5899;51.282;6.094;2023-05-19T13:26:18;4.95;;;2.20;;
11685;SDS011;5899;51.282;6.094;2023-05-19T13:28:50;4.65;;;2.17;;
11685;SDS011;5899;51.282;6.094;2023-05-19T13:31:19;4.50;;;2.10;;
11685;SDS011;5899;51.282;6.094;2023-05-19T13:33:46;4.35;;;2.28;;
11685;SDS011;5899;51.282;6.094;2023-05-19T13:36:12;4.38;;;2.40;;
11685;SDS011;5899;51.282;6.094;2023-05-19T13:38:41;4.05;;;2.35;;
11685;SDS011;5899;51.282;6.094;2023-05-19T13:41:12;4.13;;;2.78;;
11685;SDS011;5899;51.282;6.094;2023-05-19T13:43:40;3.60;;;2.50;;
11685;SDS011;5899;51.282;6.094;2023-05-19T13:46:11;3.50;;;2.00;;
11685;SDS011;5899;51.282;6.094;2023-05-19T13:48:40;4.53;;;1.80;;
11685;SDS011;5899;51.282;6.094;2023-05-19T13:51:08;4.53;;;2.40;;
11685;SDS011;5899;51.282;6.094;2023-05-19T13:53:37;4.35;;;2.10;;
11685;SDS011;5899;51.282;6.094;2023-05-19T13:56:05;4.43;;;2.10;;
11685;SDS011;5899;51.282;6.094;2023-05-19T13:58:35;3.78;;;2.40;;
11685;SDS011;5899;51.282;6.094;2023-05-19T14:01:05;5.05;;;2.10;;
11685;SDS011;5899;51.282;6.094;2023-05-19T14:03:32;4.80;;;2.50;;
11685;SDS011;5899;51.282;6.094;2023-05-19T14:05:59;3.22;;;2.00;;
11685;SDS011;5899;51.282;6.094;2023-05-19T14:08:25;2.85;;;1.83;;
11685;SDS011;5899;51.282;6.094;2023-05-19T14:10:53;3.43;;;1.80;;
11685;SDS011;5899;51.282;6.094;2023-05-19T14:13:20;2.00;;;1.70;;
11685;SDS011;5899;51.282;6.094;2023-05-19T14:15:57;3.08;;;1.92;;
11685;SDS011;5899;51.282;6.094;2023-05-19T14:18:27;2.42;;;1.88;;
11685;SDS011;5899;51.282;6.094;2023-05-19T14:20:57;4.35;;;2.25;;
11685;SDS011;5899;51.282;6.094;2023-05-19T14:23:23;3.22;;;2.13;;
11685;SDS011;5899;51.282;6.094;2023-05-19T14:25:50;3.47;;;1.95;;
11685;SDS011;5899;51.282;6.094;2023-05-19T14:28:16;3.97;;;1.83;;
11685;SDS011;5899;51.282;6.094;2023-05-19T14:36:22;2.08;;;1.77;;
11685;SDS011;5899;51.282;6.094;2023-05-19T14:38:52;5.25;;;2.05;;
11685;SDS011;5899;51.282;6.094;2023-05-19T14:41:26;3.65;;;2.00;;
11685;SDS011;5899;51.282;6.094;2023-05-19T14:44:09;3.40;;;1.83;;
11685;SDS011;5899;51.282;6.094;2023-05-19T14:46:46;4.80;;;1.88;;
11685;SDS011;5899;51.282;6.094;2023-05-19T14:49:14;3.70;;;1.80;;
11685;SDS011;5899;51.282;6.094;2023-05-19T14:51:42;3.33;;;2.00;;
11685;SDS011;5899;51.282;6.094;2023-05-19T14:54:10;2.80;;;1.85;;
11685;SDS011;5899;51.282;6.094;2023-05-19T14:56:49;2.33;;;1.73;;
11685;SDS011;5899;51.282;6.094;2023-05-19T14:59:25;3.30;;;1.90;;
11685;SDS011;5899;51.282;6.094;2023-05-19T15:01:53;3.45;;;1.75;;
11685;SDS011;5899;51.282;6.094;2023-05-19T15:04:20;4.72;;;2.15;;
11685;SDS011;5899;51.282;6.094;2023-05-19T15:06:50;4.00;;;1.80;;
11685;SDS011;5899;51.282;6.094;2023-05-19T15:09:18;3.75;;;1.75;;
11685;SDS011;5899;51.282;6.094;2023-05-19T15:11:49;3.00;;;1.90;;
11685;SDS011;5899;51.282;6.094;2023-05-19T15:14:15;3.08;;;1.88;;
11685;SDS011;5899;51.282;6.094;2023-05-19T15:16:42;2.75;;;1.75;;
11685;SDS011;5899;51.282;6.094;2023-05-19T15:19:11;3.23;;;1.97;;
11685;SDS011;5899;51.282;6.094;2023-05-19T15:21:42;3.78;;;1.83;;
11685;SDS011;5899;51.282;6.094;2023-05-19T15:24:16;2.92;;;1.67;;
11685;SDS011;5899;51.282;6.094;2023-05-19T15:26:44;6.03;;;1.98;;
11685;SDS011;5899;51.282;6.094;2023-05-19T15:29:12;2.00;;;1.50;;